Annandale Estates, Indiana
Current Conditions -  °F | °C
As of 11:55 PM on Sunday 23 Nov 2014 (Local Time) from K1II Reporting Station
Light Rain Light Rain  
Wind Chill: 57°   Ceiling: 1500
Heat Index: 57°   Visibility: 5mi
Dew Point: 54°   Wind: 16mph
Humidity: 88%   Direction: 210°SSW
Pressure: 29.21"   Gusts: 26mph
Location:  39.193°N, 86.2182°W
Report Text: K1II 240455Z AUTO 21014G23KT 5SM -RA BKN015 OVC021 14/12 A2921 RMK AO2
Loading
Personal Weather Stations






























Interactive Weather Map New forecast layout! Learn more

10-Day Weather Forecast

Advertisements
Track Severe Weather on mobile